Time;durP1;ratioP1;P1;durP2;ratioP2;P2;SDS_P1;SDS_P2;PMS_P1;PMS_P2;Temp;Humidity;BMP_temperature;BMP_pressure;BME280_temperature;BME280_humidity;BME280_pressure;Samples;Min_cycle;Max_cycle;Signal;HPM_P1;HPM_P2
2023/05/07 00:00:00;;;;;;;4.80;4.10;;;12.30;99.90;;;;;;5053928;28;20195;-75
2023/05/07 00:02:26;;;;;;;4.40;4.00;;;12.10;99.90;;;;;;5049348;28;20196;-73
2023/05/07 00:04:52;;;;;;;4.28;3.67;;;12.10;99.90;;;;;;5052520;28;20659;-73
2023/05/07 00:07:18;;;;;;;4.25;3.85;;;12.10;99.90;;;;;;5053807;28;20326;-73
2023/05/07 00:09:43;;;;;;;4.07;3.80;;;12.10;99.90;;;;;;5052251;28;20183;-73
2023/05/07 00:12:09;;;;;;;3.50;3.30;;;12.10;99.90;;;;;;5054980;28;20164;-74
2023/05/07 00:14:35;;;;;;;3.75;3.55;;;12.00;99.90;;;;;;5052771;28;20650;-74
2023/05/07 00:17:01;;;;;;;4.25;3.92;;;12.00;99.90;;;;;;5054682;28;20200;-74
2023/05/07 00:19:26;;;;;;;4.00;3.70;;;12.00;99.90;;;;;;5050688;28;20708;-75
2023/05/07 00:21:53;;;;;;;3.78;3.58;;;12.00;99.90;;;;;;5052380;28;20730;-73
2023/05/07 00:24:19;;;;;;;4.43;3.90;;;12.00;99.90;;;;;;5054013;28;20179;-74
2023/05/07 00:26:45;;;;;;;4.25;3.78;;;12.00;99.90;;;;;;5050281;28;20191;-73
2023/05/07 00:29:11;;;;;;;3.38;3.10;;;12.00;99.90;;;;;;5052166;28;20491;-73
2023/05/07 00:31:36;;;;;;;5.22;4.43;;;12.00;99.90;;;;;;5050993;28;20227;-74
2023/05/07 00:34:02;;;;;;;4.45;3.42;;;11.90;99.90;;;;;;5054816;28;20203;-73
2023/05/07 00:36:28;;;;;;;3.60;3.40;;;11.90;99.90;;;;;;5063833;28;20650;-74
2023/05/07 00:38:56;;;;;;;3.85;3.55;;;11.90;99.90;;;;;;5054034;28;20191;-74
2023/05/07 00:41:22;;;;;;;3.70;3.50;;;11.90;99.90;;;;;;5051484;28;20175;-75
2023/05/07 00:43:48;;;;;;;5.30;3.58;;;11.90;99.90;;;;;;5050862;28;20191;-74
2023/05/07 00:46:14;;;;;;;4.20;3.78;;;12.00;99.90;;;;;;5052921;28;20180;-74
2023/05/07 00:48:40;;;;;;;4.55;4.00;;;11.90;99.90;;;;;;5053263;28;20222;-73
2023/05/07 00:51:07;;;;;;;4.22;3.33;;;11.80;99.90;;;;;;5055788;28;20215;-73
2023/05/07 00:53:32;;;;;;;4.03;3.60;;;11.90;99.90;;;;;;5053146;28;20180;-74
2023/05/07 00:55:58;;;;;;;4.53;4.13;;;11.70;99.90;;;;;;5054862;28;20180;-74
2023/05/07 00:58:24;;;;;;;3.63;3.42;;;11.70;99.90;;;;;;5049083;28;20227;-74
2023/05/07 01:00:50;;;;;;;4.18;3.78;;;11.60;99.90;;;;;;5051516;28;20188;-74
2023/05/07 01:03:16;;;;;;;3.78;3.58;;;11.50;99.90;;;;;;5050101;28;20308;-74
2023/05/07 01:05:43;;;;;;;3.88;3.58;;;11.50;99.90;;;;;;5052528;28;20246;-74
2023/05/07 01:08:09;;;;;;;4.43;3.85;;;11.50;99.90;;;;;;5048746;28;20196;-74
2023/05/07 01:10:34;;;;;;;5.40;4.03;;;11.40;99.90;;;;;;5045896;28;20567;-74
2023/05/07 01:13:01;;;;;;;3.65;3.35;;;11.40;99.90;;;;;;5051198;28;20176;-74
2023/05/07 01:15:26;;;;;;;4.05;3.75;;;11.40;99.90;;;;;;5055561;28;20194;-74
2023/05/07 01:17:52;;;;;;;4.15;3.85;;;11.40;99.90;;;;;;5050849;28;20278;-75
2023/05/07 01:20:19;;;;;;;4.15;3.75;;;11.30;99.90;;;;;;5055458;28;20190;-75
2023/05/07 01:22:45;;;;;;;6.15;4.07;;;11.30;99.90;;;;;;5058814;28;20199;-75
2023/05/07 01:25:11;;;;;;;4.43;3.92;;;11.20;99.90;;;;;;5058772;28;20176;-73
2023/05/07 01:27:37;;;;;;;3.58;3.28;;;11.20;99.90;;;;;;5053963;28;20733;-75
2023/05/07 01:30:04;;;;;;;4.55;3.75;;;11.20;99.90;;;;;;5056920;28;20203;-74
2023/05/07 01:32:49;;;;;;;4.70;4.25;;;11.20;99.90;;;;;;5051970;28;20191;-74
2023/05/07 01:35:20;;;;;;;4.40;4.10;;;11.20;99.90;;;;;;5056116;28;20604;-74
2023/05/07 01:37:47;;;;;;;4.20;3.90;;;11.10;99.90;;;;;;5054319;28;20202;-75
2023/05/07 01:40:13;;;;;;;4.18;3.88;;;11.10;99.90;;;;;;5054875;28;20176;-75
2023/05/07 01:42:39;;;;;;;4.20;3.90;;;11.10;99.90;;;;;;5056531;28;20230;-75
2023/05/07 01:45:06;;;;;;;4.35;4.07;;;11.20;99.90;;;;;;5056898;28;20229;-75
2023/05/07 01:47:32;;;;;;;4.03;3.78;;;11.20;99.90;;;;;;5055528;28;20227;-75
2023/05/07 01:49:58;;;;;;;4.35;3.95;;;11.10;99.90;;;;;;5054907;28;20682;-75
2023/05/07 01:52:24;;;;;;;4.72;4.32;;;11.10;99.90;;;;;;5054272;28;20187;-75
2023/05/07 01:54:50;;;;;;;4.53;3.83;;;11.10;99.90;;;;;;5054941;28;20653;-75
2023/05/07 01:57:16;;;;;;;4.78;4.15;;;11.10;99.90;;;;;;5055692;28;20320;-75
2023/05/07 01:59:41;;;;;;;4.80;4.43;;;11.10;99.90;;;;;;5052507;28;20286;-74
2023/05/07 02:02:07;;;;;;;4.63;4.22;;;11.20;99.90;;;;;;5053318;28;20198;-74
2023/05/07 02:04:32;;;;;;;5.60;3.90;;;11.20;99.90;;;;;;5050624;28;20202;-74
2023/05/07 02:06:58;;;;;;;4.88;4.25;;;11.20;99.90;;;;;;5054979;28;20199;-76
2023/05/07 02:09:24;;;;;;;4.93;4.57;;;11.20;99.90;;;;;;5053747;28;20180;-75
2023/05/07 02:11:49;;;;;;;6.15;4.72;;;11.10;99.90;;;;;;5055904;28;20203;-75
2023/05/07 02:14:15;;;;;;;7.40;5.15;;;11.10;99.90;;;;;;5055366;28;20557;-74
2023/05/07 02:16:41;;;;;;;5.97;4.70;;;11.10;99.90;;;;;;5054155;28;20270;-74
2023/05/07 02:19:07;;;;;;;5.22;4.82;;;11.00;99.90;;;;;;5058093;28;20226;-75
2023/05/07 02:21:32;;;;;;;4.93;4.50;;;11.00;99.90;;;;;;5058683;28;20196;-75
2023/05/07 02:23:58;;;;;;;5.10;4.70;;;11.00;99.90;;;;;;5053982;28;20187;-75
2023/05/07 02:26:24;;;;;;;4.85;4.45;;;11.00;99.90;;;;;;5058192;28;20180;-75
2023/05/07 02:28:50;;;;;;;5.43;4.93;;;11.00;99.90;;;;;;5052445;28;20214;-76
2023/05/07 02:31:16;;;;;;;6.38;5.68;;;11.00;99.90;;;;;;5056290;28;20238;-76
2023/05/07 02:33:42;;;;;;;5.75;5.25;;;11.00;99.90;;;;;;5051670;28;20627;-76
2023/05/07 02:36:11;;;;;;;5.38;4.88;;;11.00;99.90;;;;;;5056261;28;20659;-74
2023/05/07 02:38:37;;;;;;;6.35;5.43;;;11.00;99.90;;;;;;5052818;28;20214;-74
2023/05/07 02:41:02;;;;;;;5.80;5.30;;;11.00;99.90;;;;;;5055374;28;20262;-74
2023/05/07 02:43:28;;;;;;;5.97;5.57;;;11.10;99.90;;;;;;5053875;28;20234;-74
2023/05/07 02:46:08;;;;;;;5.65;5.28;;;11.00;99.90;;;;;;5052055;28;20183;-74
2023/05/07 02:48:34;;;;;;;5.90;5.38;;;11.10;99.90;;;;;;5053581;28;20195;-75
2023/05/07 02:51:00;;;;;;;7.00;6.40;;;11.10;99.90;;;;;;5052792;28;20231;-73
2023/05/07 02:53:26;;;;;;;6.20;5.70;;;11.10;99.90;;;;;;5053335;28;20211;-75
2023/05/07 02:55:53;;;;;;;6.20;5.70;;;11.10;99.90;;;;;;5052880;28;20222;-75
2023/05/07 02:58:19;;;;;;;6.38;5.88;;;11.10;99.90;;;;;;5054203;28;20195;-75
2023/05/07 03:00:45;;;;;;;7.07;6.47;;;11.10;99.90;;;;;;5053550;28;20191;-76
2023/05/07 03:03:20;;;;;;;6.50;5.97;;;11.10;99.90;;;;;;5055715;28;20180;-78
2023/05/07 03:05:46;;;;;;;7.35;5.85;;;11.00;99.90;;;;;;5052905;28;20184;-75
2023/05/07 03:08:11;;;;;;;7.03;6.40;;;11.10;99.90;;;;;;5054176;28;20614;-78
2023/05/07 03:10:37;;;;;;;6.43;5.88;;;11.10;99.90;;;;;;5052227;28;20610;-76
2023/05/07 03:13:03;;;;;;;7.25;6.63;;;11.00;99.90;;;;;;5053117;28;20693;-76
2023/05/07 03:15:29;;;;;;;7.25;6.53;;;11.00;99.90;;;;;;5054327;28;20686;-75
2023/05/07 03:17:55;;;;;;;6.88;6.38;;;11.00;99.90;;;;;;5052566;28;20207;-75
2023/05/07 03:20:21;;;;;;;7.53;6.80;;;10.90;99.90;;;;;;5052647;28;20737;-74
2023/05/07 03:22:46;;;;;;;7.15;6.55;;;10.90;99.90;;;;;;5053092;28;20278;-76
2023/05/07 03:25:12;;;;;;;7.55;6.88;;;10.90;99.90;;;;;;5055604;28;20182;-74
2023/05/07 03:27:38;;;;;;;7.53;6.93;;;10.90;99.90;;;;;;5051221;28;20214;-74
2023/05/07 03:30:04;;;;;;;6.65;6.15;;;10.90;99.90;;;;;;5053309;28;20283;-75
2023/05/07 03:32:29;;;;;;;8.07;7.28;;;10.90;99.90;;;;;;5053996;28;20176;-74
2023/05/07 03:34:55;;;;;;;8.07;7.22;;;10.90;99.90;;;;;;5054590;28;20183;-75
2023/05/07 03:37:21;;;;;;;8.35;7.65;;;10.90;99.90;;;;;;5052235;28;20192;-74
2023/05/07 03:39:47;;;;;;;7.38;6.88;;;10.90;99.90;;;;;;5053904;28;20654;-75
2023/05/07 03:42:14;;;;;;;7.60;7.00;;;11.00;99.90;;;;;;5056141;28;20597;-74
2023/05/07 03:44:40;;;;;;;7.65;7.05;;;11.00;99.90;;;;;;5041052;28;20180;-75
2023/05/07 03:47:06;;;;;;;7.88;7.28;;;10.90;99.90;;;;;;5050234;28;20196;-75
2023/05/07 03:49:31;;;;;;;8.13;7.45;;;11.00;99.90;;;;;;5051383;28;20180;-74
2023/05/07 03:51:57;;;;;;;8.73;7.28;;;11.00;99.90;;;;;;5050786;28;20208;-75
2023/05/07 03:54:23;;;;;;;8.07;7.38;;;11.00;99.90;;;;;;5051365;28;20262;-74
2023/05/07 03:56:48;;;;;;;7.72;6.90;;;11.10;99.90;;;;;;5055192;28;20229;-74
2023/05/07 03:59:14;;;;;;;8.35;7.30;;;11.10;99.90;;;;;;5049312;28;20184;-76
2023/05/07 04:01:40;;;;;;;8.88;7.93;;;11.10;99.90;;;;;;5050578;28;20188;-74
2023/05/07 04:04:05;;;;;;;9.05;8.13;;;11.20;99.90;;;;;;5049135;28;20175;-74
2023/05/07 04:06:31;;;;;;;8.18;6.82;;;11.20;99.90;;;;;;5049912;28;20230;-74
2023/05/07 04:08:57;;;;;;;8.15;7.45;;;11.20;99.90;;;;;;5051833;28;20199;-75
2023/05/07 04:11:23;;;;;;;8.93;8.07;;;11.20;99.90;;;;;;5049788;28;20199;-75
2023/05/07 04:13:49;;;;;;;8.90;8.00;;;11.30;99.90;;;;;;5052067;28;20184;-75
2023/05/07 04:16:15;;;;;;;7.88;7.07;;;11.40;99.90;;;;;;5052919;28;20203;-76
2023/05/07 04:18:41;;;;;;;8.02;7.35;;;11.40;99.90;;;;;;5048594;28;20214;-74
2023/05/07 04:21:17;;;;;;;7.78;6.90;;;11.40;99.90;;;;;;5051533;28;20559;-75
2023/05/07 04:23:43;;;;;;;7.18;6.57;;;11.60;99.90;;;;;;5046594;28;20181;-76
2023/05/07 04:26:08;;;;;;;7.15;6.35;;;11.60;99.90;;;;;;5051893;28;20225;-74
2023/05/07 04:28:35;;;;;;;7.40;6.70;;;11.60;99.90;;;;;;5050764;28;20196;-74
2023/05/07 04:31:00;;;;;;;6.72;6.18;;;11.70;99.90;;;;;;5049898;28;20278;-75
2023/05/07 04:33:26;;;;;;;7.00;6.30;;;11.80;99.90;;;;;;5063586;28;20631;-76
2023/05/07 04:35:52;;;;;;;7.03;6.43;;;11.90;99.90;;;;;;5053258;28;20175;-75
2023/05/07 04:38:18;;;;;;;8.43;6.10;;;12.00;99.90;;;;;;5047150;28;20251;-74
2023/05/07 04:40:44;;;;;;;6.82;6.32;;;12.10;99.90;;;;;;5050217;28;20221;-74
2023/05/07 04:43:10;;;;;;;7.03;6.47;;;12.10;99.90;;;;;;5051904;28;20179;-74
2023/05/07 04:45:36;;;;;;;7.03;6.43;;;12.30;99.90;;;;;;5053488;28;20176;-75
2023/05/07 04:48:02;;;;;;;7.10;6.40;;;12.40;99.90;;;;;;5048809;28;20208;-78
2023/05/07 04:50:27;;;;;;;6.55;6.03;;;12.60;99.90;;;;;;5051782;28;20593;-75
2023/05/07 04:52:53;;;;;;;6.45;5.95;;;12.70;99.90;;;;;;5046954;28;20180;-75
2023/05/07 04:55:18;;;;;;;7.53;6.57;;;12.90;99.90;;;;;;5048571;28;20753;-74
2023/05/07 04:57:45;;;;;;;7.57;6.05;;;13.00;99.90;;;;;;5053648;28;22497;-74
2023/05/07 05:00:14;;;;;;;7.25;6.65;;;13.20;99.90;;;;;;5056019;28;20175;-74
2023/05/07 05:02:40;;;;;;;7.80;7.00;;;13.40;99.90;;;;;;5053514;28;20649;-74
2023/05/07 05:05:07;;;;;;;6.65;6.10;;;13.50;99.90;;;;;;5053610;28;20571;-73
2023/05/07 05:07:32;;;;;;;7.45;6.72;;;13.70;99.90;;;;;;5051556;28;20290;-77
